Time;durP1;ratioP1;P1;durP2;ratioP2;P2;SDS_P1;SDS_P2;PMS_P1;PMS_P2;Temp;Humidity;BMP_temperature;BMP_pressure;BME280_temperature;BME280_humidity;BME280_pressure;Samples;Min_cycle;Max_cycle;Signal;HPM_P1;HPM_P2
2022/11/01 00:01:51;;;;;;;7.88;4.55;;;16.60;99.90;;;;;;5107366;28;20052;-77
2022/11/01 00:04:18;;;;;;;9.70;4.13;;;16.60;99.90;;;;;;5100506;28;20032;-77
2022/11/01 00:06:44;;;;;;;5.45;3.53;;;16.60;99.90;;;;;;5085840;28;20029;-77
2022/11/01 00:09:10;;;;;;;7.05;3.10;;;16.70;99.90;;;;;;5090302;28;20058;-77
2022/11/01 00:11:36;;;;;;;5.40;3.97;;;16.70;99.90;;;;;;5088959;28;20049;-77
2022/11/01 00:14:02;;;;;;;14.15;5.53;;;16.90;99.90;;;;;;5103889;28;20061;-77
2022/11/01 00:16:27;;;;;;;11.98;4.90;;;16.90;99.90;;;;;;5085407;28;20077;-77
2022/11/01 00:18:53;;;;;;;11.15;3.78;;;16.90;99.90;;;;;;5087531;28;20550;-77
2022/11/01 00:21:19;;;;;;;12.73;5.13;;;16.80;99.90;;;;;;5103987;28;20549;-78
2022/11/01 00:23:46;;;;;;;8.35;3.80;;;16.90;99.90;;;;;;5096582;28;20100;-77
2022/11/01 00:26:20;;;;;;;11.95;4.97;;;17.00;99.90;;;;;;5069037;28;20043;-77
2022/11/01 00:28:47;;;;;;;6.00;3.17;;;17.00;99.90;;;;;;5086608;28;20074;-77
2022/11/01 00:31:14;;;;;;;8.52;4.75;;;17.10;99.90;;;;;;5087687;28;20024;-77
2022/11/01 00:33:40;;;;;;;9.43;3.60;;;17.10;99.90;;;;;;5085238;28;20092;-77
2022/11/01 00:36:07;;;;;;;5.65;3.15;;;17.10;99.90;;;;;;5085223;28;20035;-77
2022/11/01 00:38:33;;;;;;;5.57;2.80;;;17.00;99.90;;;;;;5086649;28;20051;-77
2022/11/01 00:41:01;;;;;;;3.88;3.35;;;17.00;99.90;;;;;;5068716;28;20040;-77
2022/11/01 00:43:28;;;;;;;7.18;3.47;;;17.00;99.90;;;;;;5086572;28;20365;-77
2022/11/01 00:45:53;;;;;;;4.85;4.28;;;16.90;99.90;;;;;;5084842;28;20473;-77
2022/11/01 00:48:19;;;;;;;4.03;3.22;;;16.90;99.90;;;;;;5095542;28;20036;-77
2022/11/01 00:50:45;;;;;;;4.38;3.90;;;16.80;99.90;;;;;;5084862;28;20032;-77
2022/11/01 00:53:11;;;;;;;3.95;3.10;;;16.90;99.90;;;;;;5068304;28;20050;-77
2022/11/01 00:55:37;;;;;;;9.90;3.60;;;17.00;99.90;;;;;;5084822;28;20029;-77
2022/11/01 00:58:03;;;;;;;5.90;3.28;;;17.00;99.90;;;;;;5092830;28;20047;-77
2022/11/01 01:00:29;;;;;;;8.90;3.25;;;17.10;99.90;;;;;;5106469;28;20081;-77
2022/11/01 01:02:55;;;;;;;5.90;3.03;;;17.10;99.90;;;;;;5104835;28;20044;-77
2022/11/01 01:05:21;;;;;;;5.35;4.85;;;17.10;99.90;;;;;;5105355;28;20028;-77
2022/11/01 01:07:47;;;;;;;9.02;3.17;;;17.10;99.90;;;;;;5086813;28;20012;-77
2022/11/01 01:10:13;;;;;;;5.25;4.63;;;17.10;99.90;;;;;;5105095;28;20028;-77
2022/11/01 01:12:38;;;;;;;8.75;3.85;;;17.10;99.90;;;;;;5106376;28;20082;-77
2022/11/01 01:15:05;;;;;;;4.35;4.00;;;17.10;99.90;;;;;;5095258;28;20385;-77
2022/11/01 01:17:31;;;;;;;5.97;4.38;;;17.10;99.90;;;;;;5086521;28;20037;-77
2022/11/01 01:19:57;;;;;;;5.93;4.35;;;17.00;99.90;;;;;;5105093;28;20077;-78
2022/11/01 01:22:23;;;;;;;6.50;4.55;;;16.90;99.90;;;;;;5105999;28;20052;-77
2022/11/01 01:24:49;;;;;;;6.28;5.03;;;16.90;99.90;;;;;;5104812;28;20103;-78
2022/11/01 01:27:16;;;;;;;6.72;4.75;;;16.90;99.90;;;;;;5087858;28;20468;-77
2022/11/01 01:29:43;;;;;;;6.03;3.35;;;16.90;99.90;;;;;;5101030;28;20025;-77
2022/11/01 01:32:18;;;;;;;11.20;3.45;;;16.90;99.90;;;;;;5084801;28;20033;-77
2022/11/01 01:34:44;;;;;;;9.57;5.00;;;16.90;99.90;;;;;;5101616;28;20039;-77
2022/11/01 01:37:11;;;;;;;6.28;3.75;;;16.80;99.90;;;;;;5085703;28;20477;-78
2022/11/01 01:39:37;;;;;;;7.80;4.13;;;16.90;99.90;;;;;;5104632;28;20039;-77
2022/11/01 01:42:18;;;;;;;5.82;4.45;;;16.80;99.90;;;;;;5104744;28;20028;-78
2022/11/01 01:44:49;;;;;;;8.05;3.97;;;16.80;99.90;;;;;;5087948;28;20032;-78
2022/11/01 01:47:35;;;;;;;7.18;3.53;;;16.80;99.90;;;;;;5087663;28;20028;-77
2022/11/01 01:50:20;;;;;;;11.43;4.90;;;16.80;99.90;;;;;;5085611;28;20021;-78
2022/11/01 01:52:53;;;;;;;8.15;3.60;;;16.90;99.90;;;;;;5084330;28;20056;-77
2022/11/01 01:55:23;;;;;;;7.22;3.17;;;17.00;99.90;;;;;;5085622;28;20025;-78
2022/11/01 01:57:51;;;;;;;9.07;4.03;;;16.90;99.90;;;;;;5084489;28;20021;-77
2022/11/01 02:00:18;;;;;;;8.73;3.85;;;17.00;99.90;;;;;;5102784;28;20024;-77
2022/11/01 02:02:44;;;;;;;2.80;2.60;;;17.00;99.90;;;;;;5087559;28;20044;-77
2022/11/01 02:05:26;;;;;;;9.40;3.88;;;17.00;99.90;;;;;;5087432;28;20040;-77
2022/11/01 02:07:53;;;;;;;8.57;2.90;;;17.00;99.90;;;;;;5104763;28;20051;-78
2022/11/01 02:10:19;;;;;;;9.55;3.38;;;17.00;99.90;;;;;;5083708;28;20082;-77
2022/11/01 02:12:47;;;;;;;5.82;3.70;;;17.10;99.90;;;;;;5084167;28;20032;-77
2022/11/01 02:15:15;;;;;;;4.65;3.63;;;17.00;99.90;;;;;;5095678;28;20031;-77
2022/11/01 02:18:17;;;;;;;4.00;3.38;;;17.20;99.90;;;;;;5106932;28;20032;-78
2022/11/01 02:21:19;;;;;;;8.43;2.92;;;17.10;99.90;;;;;;5089152;28;20036;-77
2022/11/01 02:24:27;;;;;;;3.55;2.90;;;17.00;99.90;;;;;;5089174;28;20033;-77
2022/11/01 02:27:25;;;;;;;6.20;3.45;;;16.90;99.90;;;;;;5088707;28;20041;-78
2022/11/01 02:30:05;;;;;;;5.43;3.65;;;16.80;99.90;;;;;;5082940;28;20043;-77
2022/11/01 02:32:58;;;;;;;7.05;3.65;;;16.90;99.90;;;;;;5086001;28;20050;-79
2022/11/01 02:35:35;;;;;;;6.15;2.92;;;16.90;99.90;;;;;;5087441;28;20070;-77
2022/11/01 02:38:23;;;;;;;5.72;3.30;;;16.90;99.90;;;;;;5088946;28;20029;-77
2022/11/01 02:40:58;;;;;;;4.78;3.33;;;16.80;99.90;;;;;;5087483;28;20035;-77
2022/11/01 02:43:35;;;;;;;8.45;3.65;;;16.90;99.90;;;;;;5087495;28;20121;-77
2022/11/01 02:46:59;;;;;;;7.10;4.13;;;16.80;99.90;;;;;;5088950;28;20028;-78
2022/11/01 02:48:49;;;;;;;7.53;3.63;;;16.80;99.90;;;;;;5094668;28;20039;-77
2022/11/01 02:51:18;;;;;;;5.15;3.33;;;16.80;99.90;;;;;;5107496;28;20027;-77
2022/11/01 02:53:44;;;;;;;4.90;3.10;;;16.70;99.90;;;;;;5108663;28;20028;-77
2022/11/01 02:56:10;;;;;;;4.43;3.08;;;16.70;99.90;;;;;;5107586;28;20035;-77
2022/11/01 02:58:36;;;;;;;3.63;3.15;;;16.70;99.90;;;;;;5086690;28;20031;-77
2022/11/01 03:01:13;;;;;;;6.45;2.45;;;16.80;99.90;;;;;;5070047;28;20108;-78
2022/11/01 03:03:42;;;;;;;7.18;3.15;;;16.70;99.90;;;;;;5088348;28;20048;-77
2022/11/01 03:06:34;;;;;;;5.15;4.22;;;16.70;99.90;;;;;;5086791;28;20024;-77
2022/11/01 03:09:03;;;;;;;7.07;3.30;;;16.80;99.90;;;;;;5095526;28;20026;-77
2022/11/01 03:11:39;;;;;;;4.05;2.80;;;16.80;99.90;;;;;;5105449;28;20028;-78
2022/11/01 03:14:20;;;;;;;6.88;2.25;;;16.80;99.90;;;;;;5092301;28;20032;-77
2022/11/01 03:16:52;;;;;;;12.32;3.10;;;16.80;99.90;;;;;;5086776;28;20043;-78
2022/11/01 03:19:31;;;;;;;3.53;2.60;;;16.80;99.90;;;;;;5097583;28;20066;-77
2022/11/01 03:22:11;;;;;;;3.60;2.70;;;16.70;99.90;;;;;;5107093;28;20058;-77
2022/11/01 03:24:44;;;;;;;3.75;2.45;;;16.70;99.90;;;;;;5108226;28;20036;-77
2022/11/01 03:27:31;;;;;;;7.75;2.90;;;16.70;99.90;;;;;;5106991;28;20126;-77
2022/11/01 03:30:09;;;;;;;3.70;2.80;;;16.70;99.90;;;;;;5092365;28;20112;-77
2022/11/01 03:32:48;;;;;;;4.32;2.30;;;16.80;99.90;;;;;;5086400;28;20050;-77
2022/11/01 03:35:33;;;;;;;7.10;2.33;;;16.70;99.90;;;;;;5087765;28;20659;-77
2022/11/01 03:38:05;;;;;;;12.85;3.08;;;16.70;99.90;;;;;;5086411;28;20355;-77
2022/11/01 03:40:33;;;;;;;2.97;2.78;;;16.70;99.90;;;;;;5088701;28;20123;-77
2022/11/01 03:43:03;;;;;;;3.10;2.00;;;16.60;99.90;;;;;;5107796;28;20429;-78
2022/11/01 03:45:31;;;;;;;4.90;2.10;;;16.80;99.90;;;;;;5106438;28;20024;-78
2022/11/01 03:47:56;;;;;;;2.33;2.10;;;16.70;99.90;;;;;;5089417;28;20032;-78
2022/11/01 03:50:25;;;;;;;2.30;1.77;;;16.60;99.90;;;;;;5088273;28;20111;-77
2022/11/01 03:52:51;;;;;;;2.65;1.27;;;16.50;99.90;;;;;;5105292;28;20036;-77
2022/11/01 03:55:19;;;;;;;1.77;1.67;;;16.40;99.90;;;;;;5106207;28;20039;-77
2022/11/01 03:57:46;;;;;;;1.20;0.88;;;16.30;99.90;;;;;;5107495;28;20032;-78
2022/11/01 04:00:22;;;;;;;1.70;1.17;;;16.30;99.90;;;;;;5096907;28;20035;-77
2022/11/01 04:02:50;;;;;;;1.17;0.77;;;16.30;99.90;;;;;;5107288;28;20055;-78
2022/11/01 04:05:16;;;;;;;1.63;0.47;;;16.20;99.90;;;;;;5105982;28;20465;-78
2022/11/01 04:07:43;;;;;;;1.30;1.05;;;16.10;99.90;;;;;;5106051;28;20032;-78
2022/11/01 04:10:10;;;;;;;3.00;0.73;;;16.00;99.90;;;;;;5091169;28;20032;-77
2022/11/01 04:12:36;;;;;;;2.00;1.02;;;16.00;99.90;;;;;;5085848;28;20088;-77
2022/11/01 04:20:32;;;;;;;2.13;1.35;;;15.90;99.90;;;;;;5086911;28;20048;-78
2022/11/01 04:23:07;;;;;;;1.92;0.93;;;15.90;99.90;;;;;;5085310;28;20028;-78
2022/11/01 04:25:40;;;;;;;0.52;0.52;;;15.80;99.90;;;;;;5085294;28;20039;-78
2022/11/01 04:28:06;;;;;;;0.55;0.55;;;15.80;99.90;;;;;;5085192;28;20055;-77
2022/11/01 04:30:32;;;;;;;0.80;0.80;;;15.70;99.90;;;;;;5104625;28;20024;-77
2022/11/01 04:32:58;;;;;;;4.03;1.05;;;15.60;99.90;;;;;;5105572;28;20039;-78
2022/11/01 04:35:23;;;;;;;1.48;0.73;;;15.50;99.90;;;;;;5106891;28;20384;-77
2022/11/01 04:37:56;;;;;;;1.58;0.80;;;15.50;99.90;;;;;;5105505;28;20092;-77
2022/11/01 04:40:22;;;;;;;2.78;1.33;;;15.40;99.90;;;;;;5104235;28;20043;-77
2022/11/01 04:42:48;;;;;;;2.28;0.73;;;15.40;99.90;;;;;;5084461;28;20191;-78
2022/11/01 04:45:14;;;;;;;0.60;0.60;;;15.20;99.90;;;;;;5068363;28;20469;-77
2022/11/01 04:47:49;;;;;;;1.23;0.75;;;15.20;99.90;;;;;;5068290;28;20036;-77
2022/11/01 04:50:16;;;;;;;2.28;1.25;;;15.20;99.90;;;;;;5100867;28;20036;-78
2022/11/01 04:52:41;;;;;;;2.08;0.30;;;15.00;99.90;;;;;;5105451;28;20039;-77
2022/11/01 04:55:07;;;;;;;2.63;2.08;;;15.00;99.90;;;;;;5088429;28;20111;-77
2022/11/01 04:57:43;;;;;;;1.42;0.95;;;15.00;99.90;;;;;;5104913;28;20024;-77
2022/11/01 05:00:13;;;;;;;3.63;0.65;;;14.90;99.90;;;;;;5084426;28;20028;-78
2022/11/01 05:02:39;;;;;;;0.68;0.57;;;14.90;99.90;;;;;;5084641;28;20070;-78
2022/11/01 05:05:07;;;;;;;2.10;1.30;;;14.80;99.90;;;;;;5084448;28;20036;-77
2022/11/01 05:07:33;;;;;;;1.10;0.77;;;14.70;99.90;;;;;;5084633;28;20020;-79
2022/11/01 05:10:00;;;;;;;1.85;0.80;;;14.70;99.90;;;;;;5075524;28;20021;-79
2022/11/01 05:12:26;;;;;;;4.28;0.57;;;14.70;99.90;;;;;;5095888;28;20024;-78
2022/11/01 05:14:52;;;;;;;1.08;0.70;;;14.80;99.90;;;;;;5069291;28;20025;-79
2022/11/01 05:17:18;;;;;;;1.17;0.95;;;14.80;99.90;;;;;;5087913;28;20024;-79
2022/11/01 05:19:44;;;;;;;6.47;1.30;;;14.70;99.90;;;;;;5097981;28;20028;-79
2022/11/01 05:22:09;;;;;;;0.43;0.43;;;14.70;99.90;;;;;;5084138;28;20129;-79
2022/11/01 05:24:35;;;;;;;6.75;0.93;;;14.60;99.90;;;;;;5090237;28;20024;-77
2022/11/01 05:27:01;;;;;;;2.38;1.00;;;14.60;99.90;;;;;;5079248;28;20024;-79
2022/11/01 05:29:27;;;;;;;2.03;0.70;;;14.60;99.90;;;;;;5093322;28;20032;-78
2022/11/01 05:31:53;;;;;;;0.95;0.85;;;14.50;99.90;;;;;;5094753;28;20021;-78
2022/11/01 05:34:19;;;;;;;5.30;1.05;;;14.40;99.90;;;;;;5084424;28;20060;-78
2022/11/01 05:36:45;;;;;;;2.13;1.05;;;14.30;99.90;;;;;;5100164;28;20059;-77
2022/11/01 05:39:11;;;;;;;2.08;0.73;;;14.30;99.90;;;;;;5097286;28;20029;-77
2022/11/01 05:41:39;;;;;;;2.63;1.40;;;14.20;99.90;;;;;;5085403;28;20032;-77
2022/11/01 05:44:05;;;;;;;4.65;2.15;;;14.20;99.90;;;;;;5086947;28;20024;-78
2022/11/01 05:46:31;;;;;;;2.47;1.42;;;14.10;99.90;;;;;;5087592;28;20039;-78
2022/11/01 05:48:57;;;;;;;4.05;0.80;;;14.10;99.90;;;;;;5086648;28;20028;-78
2022/11/01 05:51:23;;;;;;;1.08;0.50;;;14.00;99.90;;;;;;5101019;28;20027;-78
2022/11/01 05:53:49;;;;;;;3.95;0.77;;;13.90;99.90;;;;;;5088517;28;20048;-77
2022/11/01 05:56:16;;;;;;;1.95;0.70;;;13.80;99.90;;;;;;5105403;28;20410;-78
2022/11/01 05:58:42;;;;;;;2.38;0.75;;;13.80;99.90;;;;;;5089395;28;20024;-77
2022/11/01 06:01:08;;;;;;;4.70;0.85;;;13.80;99.90;;;;;;5104331;28;20051;-77
2022/11/01 06:03:35;;;;;;;3.25;0.70;;;13.70;99.90;;;;;;5092065;28;20120;-77
2022/11/01 06:06:02;;;;;;;0.68;0.60;;;13.80;99.90;;;;;;5088783;28;20016;-78
2022/11/01 06:08:28;;;;;;;2.15;1.33;;;13.70;99.90;;;;;;5090531;28;20025;-77
2022/11/01 06:11:01;;;;;;;11.57;1.05;;;13.60;99.90;;;;;;5093149;28;20020;-77
2022/11/01 06:13:27;;;;;;;1.65;1.08;;;13.60;99.90;;;;;;5088018;28;20036;-78
2022/11/01 06:16:01;;;;;;;3.60;0.95;;;13.60;99.90;;;;;;5100101;28;20029;-77
2022/11/01 06:18:26;;;;;;;2.10;0.93;;;13.50;99.90;;;;;;5091452;28;20028;-77
2022/11/01 06:20:52;;;;;;;3.63;0.90;;;13.50;99.90;;;;;;5089995;28;20029;-77
2022/11/01 06:23:19;;;;;;;0.73;0.68;;;13.50;99.90;;;;;;5089539;28;20024;-77
2022/11/01 06:25:44;;;;;;;5.15;1.13;;;13.40;99.90;;;;;;5090424;28;20031;-77
2022/11/01 06:28:10;;;;;;;1.23;0.90;;;13.30;99.90;;;;;;5089859;28;20035;-78
2022/11/01 06:30:37;;;;;;;4.00;1.08;;;13.40;99.90;;;;;;5105241;28;20081;-77
2022/11/01 06:33:05;;;;;;;2.20;1.10;;;13.30;99.90;;;;;;5101668;28;20028;-76
2022/11/01 06:35:32;;;;;;;5.22;1.50;;;13.30;99.90;;;;;;5089688;28;20077;-77
2022/11/01 06:38:05;;;;;;;1.30;0.43;;;13.30;99.90;;;;;;5083741;28;20067;-77
2022/11/01 06:40:35;;;;;;;2.70;0.93;;;13.30;99.90;;;;;;5088867;28;20024;-77
2022/11/01 06:43:03;;;;;;;0.68;0.50;;;13.10;99.90;;;;;;5087310;28;20024;-77
2022/11/01 06:45:30;;;;;;;2.78;1.13;;;13.10;99.90;;;;;;5090057;28;20100;-77
2022/11/01 06:47:56;;;;;;;12.98;1.23;;;13.10;99.90;;;;;;5105816;28;20024;-77
2022/11/01 06:50:22;;;;;;;2.92;0.88;;;13.00;99.90;;;;;;5096498;28;20092;-76
2022/11/01 06:52:48;;;;;;;3.80;0.85;;;13.00;99.90;;;;;;5089775;28;20083;-76
2022/11/01 06:55:14;;;;;;;2.08;0.93;;;13.00;99.90;;;;;;5092847;28;20036;-77
2022/11/01 06:57:40;;;;;;;2.72;0.75;;;13.00;99.90;;;;;;5099498;28;20036;-76
2022/11/01 07:00:08;;;;;;;5.68;1.10;;;12.90;99.90;;;;;;5103892;28;20024;-79
2022/11/01 07:02:34;;;;;;;1.13;1.02;;;12.90;99.90;;;;;;5105316;28;20097;-76
2022/11/01 07:05:00;;;;;;;4.32;2.15;;;12.90;99.90;;;;;;5089990;28;20036;-78
2022/11/01 07:07:26;;;;;;;1.25;1.15;;;12.90;99.90;;;;;;5108444;28;20549;-77
2022/11/01 07:09:51;;;;;;;13.73;3.13;;;12.90;99.90;;;;;;5095841;28;20076;-77
2022/11/01 07:12:17;;;;;;;7.68;2.13;;;12.90;99.90;;;;;;5098262;28;20033;-77
2022/11/01 07:14:43;;;;;;;7.35;2.20;;;13.00;99.90;;;;;;5089042;28;20074;-77
2022/11/01 07:17:09;;;;;;;5.43;1.95;;;13.10;99.90;;;;;;5098663;28;20032;-77
2022/11/01 07:19:35;;;;;;;5.53;2.08;;;13.10;99.90;;;;;;5096337;28;20159;-77
2022/11/01 07:22:00;;;;;;;4.47;1.58;;;13.10;99.90;;;;;;5070200;28;20036;-77
2022/11/01 07:24:27;;;;;;;2.03;1.10;;;13.20;99.90;;;;;;5088423;28;20114;-77
2022/11/01 07:26:52;;;;;;;10.98;1.40;;;13.30;99.90;;;;;;5088791;28;20067;-78
2022/11/01 07:29:19;;;;;;;9.23;0.98;;;13.40;99.90;;;;;;5092181;28;20028;-77
2022/11/01 07:31:46;;;;;;;5.07;1.58;;;14.00;99.90;;;;;;5072756;28;20021;-77
2022/11/01 07:34:12;;;;;;;2.75;0.73;;;14.40;99.90;;;;;;5094325;28;20032;-77
2022/11/01 07:36:38;;;;;;;3.05;1.52;;;15.10;99.90;;;;;;5086450;28;20092;-78
2022/11/01 07:39:04;;;;;;;5.80;2.50;;;16.10;99.90;;;;;;5082113;28;20035;-77
2022/11/01 07:41:30;;;;;;;7.72;1.67;;;16.40;99.90;;;;;;5104474;28;20040;-77
2022/11/01 07:43:56;;;;;;;2.92;1.30;;;17.60;99.90;;;;;;5100897;28;20044;-77
2022/11/01 07:46:22;;;;;;;3.55;0.88;;;18.20;99.90;;;;;;5090726;28;20028;-77
2022/11/01 07:48:49;;;;;;;4.68;1.42;;;18.60;99.90;;;;;;5106044;28;20035;-77
2022/11/01 07:51:16;;;;;;;12.07;2.72;;;19.30;99.90;;;;;;5092297;28;20079;-77
2022/11/01 07:53:42;;;;;;;0.80;0.73;;;19.90;99.90;;;;;;5095378;28;20039;-77
2022/11/01 07:56:07;;;;;;;4.85;1.20;;;20.00;99.90;;;;;;5105760;28;20036;-78
2022/11/01 07:58:34;;;;;;;6.00;2.13;;;20.30;99.90;;;;;;5105476;28;21517;-77
2022/11/01 08:01:00;;;;;;;3.47;1.48;;;20.40;99.90;;;;;;5105072;28;20028;-77
2022/11/01 08:03:26;;;;;;;5.65;2.25;;;20.80;99.90;;;;;;5103237;28;20047;-77
2022/11/01 08:05:54;;;;;;;6.50;1.30;;;20.70;99.90;;;;;;5093271;28;20079;-77
2022/11/01 08:08:20;;;;;;;6.13;2.90;;;21.00;99.90;;;;;;5089840;28;20029;-77
2022/11/01 08:10:46;;;;;;;4.57;1.70;;;21.00;99.90;;;;;;5087573;28;20031;-77
2022/11/01 08:13:22;;;;;;;7.43;1.85;;;21.80;99.80;;;;;;5087408;28;20025;-77
2022/11/01 08:15:50;;;;;;;6.78;2.83;;;21.70;99.90;;;;;;5089802;28;20023;-77
2022/11/01 08:18:17;;;;;;;5.60;2.03;;;21.90;99.60;;;;;;5092267;28;20047;-77
2022/11/01 08:20:43;;;;;;;2.15;1.35;;;22.00;99.40;;;;;;5097959;28;20042;-77
2022/11/01 08:23:10;;;;;;;4.72;1.88;;;22.10;99.20;;;;;;5087605;28;20044;-77
2022/11/01 08:25:36;;;;;;;6.32;2.40;;;21.80;99.30;;;;;;5091621;28;20020;-77
2022/11/01 08:28:08;;;;;;;8.05;1.80;;;21.70;99.30;;;;;;5101165;28;20016;-77
2022/11/01 08:30:35;;;;;;;7.50;2.10;;;21.50;99.90;;;;;;5101953;28;20030;-77
2022/11/01 08:33:02;;;;;;;4.28;1.17;;;21.70;99.70;;;;;;5091900;28;20017;-78
2022/11/01 08:35:29;;;;;;;1.75;1.08;;;21.70;99.60;;;;;;5089760;28;20044;-77
2022/11/01 08:37:55;;;;;;;5.10;2.00;;;22.20;99.40;;;;;;5104599;28;20024;-77
2022/11/01 08:40:21;;;;;;;3.90;1.20;;;22.40;99.20;;;;;;5103440;28;20389;-77
2022/11/01 08:42:48;;;;;;;5.45;1.67;;;22.60;98.80;;;;;;5106778;28;20028;-76
2022/11/01 08:45:14;;;;;;;7.18;2.65;;;23.00;98.10;;;;;;5100018;28;20060;-77
2022/11/01 08:47:40;;;;;;;7.60;1.67;;;23.00;98.20;;;;;;5086284;28;20028;-77
2022/11/01 08:50:08;;;;;;;7.00;2.38;;;23.20;97.90;;;;;;5086671;28;20366;-77
2022/11/01 08:52:34;;;;;;;4.95;1.05;;;23.00;98.10;;;;;;5104416;28;20080;-77
2022/11/01 08:55:00;;;;;;;3.75;2.20;;;22.90;98.10;;;;;;5088658;28;21398;-75
2022/11/01 08:57:26;;;;;;;2.63;1.35;;;23.50;97.90;;;;;;5068104;28;20033;-75
2022/11/01 08:59:52;;;;;;;8.95;2.17;;;23.40;98.10;;;;;;5068989;28;20367;-75
2022/11/01 09:02:17;;;;;;;1.70;1.13;;;23.80;97.70;;;;;;5098005;28;20135;-76
2022/11/01 09:04:43;;;;;;;2.90;1.90;;;23.90;97.40;;;;;;5105183;28;20417;-75
2022/11/01 09:07:09;;;;;;;4.30;1.48;;;24.40;97.10;;;;;;5085139;28;20035;-77
2022/11/01 09:09:35;;;;;;;2.97;1.30;;;23.40;97.40;;;;;;5083657;28;20084;-77
2022/11/01 09:12:03;;;;;;;5.50;2.47;;;23.40;97.90;;;;;;5087808;28;20063;-77
2022/11/01 09:14:29;;;;;;;9.82;2.25;;;23.70;97.80;;;;;;5085727;28;20041;-77
2022/11/01 09:16:55;;;;;;;4.90;2.45;;;23.50;97.50;;;;;;5085553;28;20048;-77
2022/11/01 09:19:21;;;;;;;2.88;1.55;;;23.10;97.80;;;;;;5099844;28;20036;-75
2022/11/01 09:21:47;;;;;;;8.40;3.00;;;23.10;98.20;;;;;;5076396;28;20035;-75
2022/11/01 09:24:16;;;;;;;8.60;2.03;;;23.30;97.50;;;;;;5092488;28;20096;-75
2022/11/01 09:26:42;;;;;;;7.47;1.48;;;23.20;98.50;;;;;;5095843;28;20046;-75
2022/11/01 09:29:09;;;;;;;5.15;1.02;;;23.40;97.90;;;;;;5100827;28;20024;-76
2022/11/01 09:31:35;;;;;;;4.25;1.67;;;23.00;98.40;;;;;;5095199;28;20033;-76
2022/11/01 09:34:01;;;;;;;8.75;2.70;;;23.70;97.90;;;;;;5089043;28;20439;-77
2022/11/01 09:36:27;;;;;;;4.38;1.50;;;24.20;97.80;;;;;;5094532;28;20056;-77
2022/11/01 09:38:54;;;;;;;3.90;1.88;;;24.20;97.30;;;;;;5081082;28;20095;-77
2022/11/01 09:41:35;;;;;;;5.15;1.20;;;23.00;98.00;;;;;;5103551;28;20038;-77
2022/11/01 09:44:03;;;;;;;9.25;3.08;;;23.00;97.70;;;;;;5091114;28;20028;-77
2022/11/01 09:46:42;;;;;;;9.65;2.13;;;22.30;98.20;;;;;;5096042;28;20465;-78
2022/11/01 09:49:10;;;;;;;8.60;1.88;;;22.00;98.90;;;;;;5093879;28;20024;-76
2022/11/01 09:51:37;;;;;;;3.13;1.10;;;22.90;98.20;;;;;;5104202;28;20032;-77
2022/11/01 09:54:03;;;;;;;3.85;2.10;;;22.80;98.40;;;;;;5091675;28;20112;-78
2022/11/01 09:57:15;;;;;;;7.05;1.48;;;23.00;99.90;;;;;;5100233;28;20028;-77
2022/11/01 09:59:57;;;;;;;4.03;1.42;;;22.80;97.40;;;;;;5024736;28;20239;-78
2022/11/01 10:02:32;;;;;;;4.70;1.67;;;23.10;97.70;;;;;;5081572;28;20059;-77
2022/11/01 10:05:10;;;;;;;4.15;1.65;;;23.20;97.80;;;;;;5084077;28;20119;-77
2022/11/01 10:07:46;;;;;;;10.35;2.47;;;24.10;97.20;;;;;;5083574;28;20024;-77
2022/11/01 10:10:21;;;;;;;5.97;1.88;;;23.70;97.80;;;;;;5089451;28;20110;-77
2022/11/01 10:13:13;;;;;;;12.13;2.88;;;23.60;97.50;;;;;;5067545;28;20093;-77
2022/11/01 10:15:42;;;;;;;6.28;2.50;;;23.40;97.80;;;;;;5068876;28;20029;-77
2022/11/01 10:18:28;;;;;;;6.00;1.85;;;23.60;98.00;;;;;;5105944;28;20028;-77
2022/11/01 10:21:03;;;;;;;6.00;1.42;;;23.60;97.30;;;;;;5102457;28;20021;-77
2022/11/01 10:23:50;;;;;;;6.22;1.90;;;22.90;97.60;;;;;;5104166;28;20131;-77
2022/11/01 10:26:35;;;;;;;9.23;2.42;;;22.30;98.20;;;;;;5102524;28;20073;-76
2022/11/01 10:29:29;;;;;;;6.13;1.60;;;22.30;98.70;;;;;;5100937;28;20063;-76
2022/11/01 10:31:57;;;;;;;7.20;3.25;;;22.80;98.20;;;;;;5086475;28;20028;-76
2022/11/01 10:34:31;;;;;;;5.82;2.35;;;22.10;98.90;;;;;;5093129;28;20043;-77
2022/11/01 10:37:24;;;;;;;5.93;2.15;;;21.90;99.30;;;;;;5091906;28;20359;-77
2022/11/01 10:40:08;;;;;;;7.60;2.80;;;22.50;98.90;;;;;;5086238;28;20024;-77
2022/11/01 10:42:34;;;;;;;9.60;1.83;;;22.10;98.80;;;;;;5095799;28;20067;-76
2022/11/01 10:45:06;;;;;;;5.55;1.60;;;21.20;99.50;;;;;;5108799;28;20076;-76
2022/11/01 10:47:31;;;;;;;5.57;2.05;;;21.40;99.90;;;;;;5092427;28;20078;-76
2022/11/01 10:50:09;;;;;;;6.60;3.33;;;21.30;99.80;;;;;;5088131;28;20436;-77
2022/11/01 10:52:54;;;;;;;6.70;2.00;;;21.30;99.50;;;;;;5096890;28;20028;-77
2022/11/01 10:55:46;;;;;;;6.35;1.88;;;21.40;99.90;;;;;;5092222;28;20032;-77
2022/11/01 10:58:30;;;;;;;4.25;1.48;;;21.00;99.80;;;;;;5088413;28;20029;-77
2022/11/01 11:00:56;;;;;;;20.95;2.15;;;20.70;99.90;;;;;;5098863;28;20028;-76
2022/11/01 11:03:26;;;;;;;7.93;2.20;;;19.70;99.90;;;;;;5096074;28;20122;-76
2022/11/01 11:05:54;;;;;;;5.00;2.22;;;19.70;99.90;;;;;;5099229;28;20591;-77
2022/11/01 11:08:22;;;;;;;5.50;2.33;;;19.30;99.90;;;;;;5107321;28;20020;-76
2022/11/01 11:10:48;;;;;;;6.28;2.35;;;19.30;99.90;;;;;;5105232;28;20013;-77
2022/11/01 11:13:19;;;;;;;2.25;1.02;;;19.10;99.90;;;;;;5089069;28;20058;-76
2022/11/01 11:16:01;;;;;;;11.90;2.60;;;19.30;99.90;;;;;;5072086;28;20032;-76
2022/11/01 11:18:42;;;;;;;5.75;2.28;;;19.20;99.90;;;;;;5090353;28;20062;-76
2022/11/01 11:21:11;;;;;;;9.50;1.75;;;19.20;99.90;;;;;;5106521;28;20028;-77
2022/11/01 11:23:43;;;;;;;4.57;1.83;;;19.10;99.90;;;;;;5090142;28;20028;-77
2022/11/01 11:26:15;;;;;;;7.47;2.88;;;19.30;99.90;;;;;;5090112;28;20095;-77
2022/11/01 11:28:54;;;;;;;14.25;2.85;;;19.10;99.90;;;;;;5105167;28;20051;-77
2022/11/01 11:31:27;;;;;;;6.32;2.30;;;19.40;99.90;;;;;;5090891;28;20036;-77
2022/11/01 11:33:57;;;;;;;3.25;1.58;;;18.70;99.90;;;;;;5096664;28;20042;-77
2022/11/01 11:36:31;;;;;;;4.47;1.80;;;18.80;99.90;;;;;;5086856;28;20091;-77
2022/11/01 11:38:58;;;;;;;5.78;1.38;;;18.80;99.90;;;;;;5095607;28;20111;-77
2022/11/01 11:41:35;;;;;;;5.57;1.10;;;19.00;99.90;;;;;;5086210;28;20087;-77
2022/11/01 11:44:01;;;;;;;6.68;2.63;;;19.20;99.90;;;;;;5087345;28;20039;-77
2022/11/01 11:46:27;;;;;;;7.93;1.88;;;19.30;99.90;;;;;;5086380;28;20016;-77
2022/11/01 11:48:59;;;;;;;4.68;2.30;;;18.70;99.90;;;;;;5086395;28;20035;-77
2022/11/01 11:51:29;;;;;;;2.97;1.33;;;18.60;99.90;;;;;;5086870;28;20031;-77
2022/11/01 11:54:25;;;;;;;6.32;1.77;;;18.70;99.90;;;;;;5099189;28;20039;-76
2022/11/01 11:57:05;;;;;;;4.85;1.65;;;19.10;99.90;;;;;;5106197;28;20032;-77
2022/11/01 11:59:32;;;;;;;3.15;1.55;;;18.50;99.90;;;;;;5089095;28;20032;-77
2022/11/01 12:02:02;;;;;;;4.13;1.88;;;18.60;99.90;;;;;;5106035;28;20059;-78
2022/11/01 12:04:37;;;;;;;6.35;1.85;;;18.80;99.90;;;;;;5099309;28;20115;-77
2022/11/01 12:07:06;;;;;;;3.28;1.38;;;18.90;99.90;;;;;;5087381;28;20122;-77
2022/11/01 12:09:45;;;;;;;6.78;1.52;;;19.00;99.90;;;;;;5087019;28;20025;-77
2022/11/01 12:12:24;;;;;;;4.37;1.97;;;19.20;99.90;;;;;;5085660;28;20028;-76
2022/11/01 12:14:50;;;;;;;2.65;1.45;;;19.30;99.90;;;;;;5086770;28;20028;-77
2022/11/01 12:17:25;;;;;;;9.40;0.93;;;19.40;99.90;;;;;;5085614;28;20063;-77
2022/11/01 12:20:11;;;;;;;2.88;1.17;;;19.50;99.90;;;;;;5085806;28;20041;-77
2022/11/01 12:22:42;;;;;;;5.90;1.63;;;19.60;99.90;;;;;;5087075;28;20052;-77
2022/11/01 12:25:23;;;;;;;4.13;1.58;;;19.20;99.90;;;;;;5085558;28;20043;-76
2022/11/01 12:27:56;;;;;;;4.47;2.30;;;18.70;99.90;;;;;;5074034;28;20025;-77
2022/11/01 12:30:24;;;;;;;5.68;1.85;;;18.60;99.90;;;;;;5085338;28;20028;-77
2022/11/01 12:32:59;;;;;;;7.90;1.90;;;18.80;99.90;;;;;;5102330;28;20017;-77
2022/11/01 12:35:36;;;;;;;1.33;0.90;;;19.00;99.90;;;;;;5086067;28;20453;-76
2022/11/01 12:38:34;;;;;;;6.65;1.42;;;18.90;99.90;;;;;;5086611;28;20032;-76
2022/11/01 12:41:37;;;;;;;7.18;2.05;;;18.60;99.90;;;;;;5085751;28;20389;-76
2022/11/01 12:44:30;;;;;;;3.05;1.05;;;18.90;99.90;;;;;;5086463;28;20067;-77
2022/11/01 12:47:31;;;;;;;5.00;2.08;;;19.00;99.90;;;;;;5086494;28;20078;-77
2022/11/01 12:49:56;;;;;;;2.53;1.20;;;18.90;99.90;;;;;;5086210;28;20048;-76
2022/11/01 12:52:41;;;;;;;5.65;1.83;;;18.60;99.90;;;;;;5075991;28;20556;-76
2022/11/01 12:55:23;;;;;;;10.90;3.80;;;18.40;99.90;;;;;;5091250;28;20025;-77
2022/11/01 12:57:49;;;;;;;6.45;2.13;;;18.50;99.90;;;;;;5086152;28;20048;-77
2022/11/01 13:00:17;;;;;;;14.02;2.95;;;18.30;99.90;;;;;;5084971;28;20064;-76
2022/11/01 13:03:02;;;;;;;6.22;2.17;;;18.30;99.90;;;;;;5085162;28;20041;-77
2022/11/01 13:05:37;;;;;;;6.32;2.75;;;18.40;99.90;;;;;;5086093;28;20055;-78
2022/11/01 13:08:35;;;;;;;2.45;1.42;;;18.10;99.90;;;;;;5084799;28;20028;-77
2022/11/01 13:11:24;;;;;;;4.10;1.10;;;18.00;99.90;;;;;;5102979;28;20031;-77